sensor_id;sensor_type;location;lat;lon;timestamp;P1;durP1;ratioP1;P2;durP2;ratioP2
6378;SDS011;3222;48.858;10.128;2022-12-17T00:02:41;21.73;;;13.27;;
6378;SDS011;3222;48.858;10.128;2022-12-17T00:05:25;24.83;;;12.93;;
6378;SDS011;3222;48.858;10.128;2022-12-17T00:08:10;20.80;;;12.70;;
6378;SDS011;3222;48.858;10.128;2022-12-17T00:10:56;22.80;;;14.30;;
6378;SDS011;3222;48.858;10.128;2022-12-17T00:13:40;25.63;;;14.20;;
6378;SDS011;3222;48.858;10.128;2022-12-17T00:16:25;27.17;;;14.50;;
6378;SDS011;3222;48.858;10.128;2022-12-17T00:19:09;42.73;;;15.73;;
6378;SDS011;3222;48.858;10.128;2022-12-17T00:21:54;30.87;;;15.23;;
6378;SDS011;3222;48.858;10.128;2022-12-17T00:24:38;26.00;;;15.33;;
6378;SDS011;3222;48.858;10.128;2022-12-17T00:27:22;26.50;;;15.47;;
6378;SDS011;3222;48.858;10.128;2022-12-17T00:30:06;24.43;;;15.10;;
6378;SDS011;3222;48.858;10.128;2022-12-17T00:33:04;26.37;;;15.77;;
6378;SDS011;3222;48.858;10.128;2022-12-17T00:35:52;24.30;;;15.60;;
6378;SDS011;3222;48.858;10.128;2022-12-17T00:38:37;23.23;;;15.23;;
6378;SDS011;3222;48.858;10.128;2022-12-17T00:41:22;28.00;;;15.73;;
6378;SDS011;3222;48.858;10.128;2022-12-17T00:44:20;27.13;;;15.83;;
6378;SDS011;3222;48.858;10.128;2022-12-17T00:47:04;23.03;;;14.03;;
6378;SDS011;3222;48.858;10.128;2022-12-17T00:49:48;25.13;;;15.17;;
6378;SDS011;3222;48.858;10.128;2022-12-17T00:52:32;23.60;;;15.00;;
6378;SDS011;3222;48.858;10.128;2022-12-17T00:55:17;30.03;;;15.93;;
6378;SDS011;3222;48.858;10.128;2022-12-17T00:58:01;21.63;;;13.90;;
6378;SDS011;3222;48.858;10.128;2022-12-17T01:00:46;59.67;;;15.87;;
6378;SDS011;3222;48.858;10.128;2022-12-17T01:03:30;25.50;;;15.40;;
6378;SDS011;3222;48.858;10.128;2022-12-17T01:06:14;27.23;;;13.27;;
6378;SDS011;3222;48.858;10.128;2022-12-17T01:08:59;26.43;;;14.40;;
6378;SDS011;3222;48.858;10.128;2022-12-17T01:11:45;27.77;;;15.27;;
6378;SDS011;3222;48.858;10.128;2022-12-17T01:14:30;29.90;;;17.07;;
6378;SDS011;3222;48.858;10.128;2022-12-17T01:17:16;27.73;;;15.83;;
6378;SDS011;3222;48.858;10.128;2022-12-17T01:20:00;31.43;;;16.13;;
6378;SDS011;3222;48.858;10.128;2022-12-17T01:22:45;28.70;;;16.67;;
6378;SDS011;3222;48.858;10.128;2022-12-17T01:25:29;28.57;;;16.30;;
6378;SDS011;3222;48.858;10.128;2022-12-17T01:28:20;30.23;;;16.67;;
6378;SDS011;3222;48.858;10.128;2022-12-17T01:31:05;30.40;;;15.43;;
6378;SDS011;3222;48.858;10.128;2022-12-17T01:33:50;22.87;;;14.47;;
6378;SDS011;3222;48.858;10.128;2022-12-17T01:36:35;22.93;;;14.93;;
6378;SDS011;3222;48.858;10.128;2022-12-17T01:39:19;26.50;;;15.07;;
6378;SDS011;3222;48.858;10.128;2022-12-17T01:42:03;27.33;;;15.10;;
6378;SDS011;3222;48.858;10.128;2022-12-17T01:44:54;26.23;;;15.57;;
6378;SDS011;3222;48.858;10.128;2022-12-17T01:47:43;29.43;;;16.00;;
6378;SDS011;3222;48.858;10.128;2022-12-17T01:50:40;26.10;;;15.63;;
6378;SDS011;3222;48.858;10.128;2022-12-17T01:53:32;31.30;;;16.13;;
6378;SDS011;3222;48.858;10.128;2022-12-17T01:56:20;27.70;;;15.50;;
6378;SDS011;3222;48.858;10.128;2022-12-17T01:59:05;26.13;;;15.30;;
6378;SDS011;3222;48.858;10.128;2022-12-17T02:01:52;59.00;;;17.13;;
6378;SDS011;3222;48.858;10.128;2022-12-17T02:04:36;24.53;;;15.40;;
6378;SDS011;3222;48.858;10.128;2022-12-17T02:13:14;28.03;;;14.43;;
6378;SDS011;3222;48.858;10.128;2022-12-17T02:16:13;29.00;;;14.17;;
6378;SDS011;3222;48.858;10.128;2022-12-17T02:19:05;29.13;;;15.57;;
6378;SDS011;3222;48.858;10.128;2022-12-17T02:22:13;30.23;;;15.93;;
6378;SDS011;3222;48.858;10.128;2022-12-17T02:26:11;25.60;;;14.90;;
6378;SDS011;3222;48.858;10.128;2022-12-17T02:28:35;27.20;;;16.17;;
6378;SDS011;3222;48.858;10.128;2022-12-17T02:31:23;28.90;;;16.67;;
6378;SDS011;3222;48.858;10.128;2022-12-17T02:34:08;30.63;;;16.80;;
6378;SDS011;3222;48.858;10.128;2022-12-17T02:36:52;26.97;;;15.57;;
6378;SDS011;3222;48.858;10.128;2022-12-17T02:39:37;27.73;;;14.77;;
6378;SDS011;3222;48.858;10.128;2022-12-17T02:42:22;26.23;;;15.27;;
6378;SDS011;3222;48.858;10.128;2022-12-17T02:45:10;23.77;;;14.43;;
6378;SDS011;3222;48.858;10.128;2022-12-17T02:47:55;21.30;;;14.00;;
6378;SDS011;3222;48.858;10.128;2022-12-17T02:50:39;44.53;;;14.90;;
6378;SDS011;3222;48.858;10.128;2022-12-17T02:53:24;32.27;;;14.63;;
6378;SDS011;3222;48.858;10.128;2022-12-17T02:56:08;29.57;;;14.47;;
6378;SDS011;3222;48.858;10.128;2022-12-17T02:58:52;61.10;;;14.10;;
6378;SDS011;3222;48.858;10.128;2022-12-17T03:01:37;44.17;;;14.50;;
6378;SDS011;3222;48.858;10.128;2022-12-17T03:04:22;45.90;;;13.87;;
6378;SDS011;3222;48.858;10.128;2022-12-17T03:07:06;31.50;;;14.43;;
6378;SDS011;3222;48.858;10.128;2022-12-17T03:09:50;40.00;;;16.70;;
6378;SDS011;3222;48.858;10.128;2022-12-17T03:12:39;38.93;;;15.00;;
6378;SDS011;3222;48.858;10.128;2022-12-17T03:15:23;43.03;;;13.60;;
6378;SDS011;3222;48.858;10.128;2022-12-17T03:18:07;24.77;;;13.87;;
6378;SDS011;3222;48.858;10.128;2022-12-17T03:20:52;24.30;;;14.30;;
6378;SDS011;3222;48.858;10.128;2022-12-17T03:23:49;25.70;;;15.10;;
6378;SDS011;3222;48.858;10.128;2022-12-17T03:26:34;29.43;;;15.47;;
6378;SDS011;3222;48.858;10.128;2022-12-17T03:29:18;21.20;;;13.40;;
6378;SDS011;3222;48.858;10.128;2022-12-17T03:32:02;23.67;;;14.30;;
6378;SDS011;3222;48.858;10.128;2022-12-17T03:34:47;24.63;;;13.67;;
6378;SDS011;3222;48.858;10.128;2022-12-17T03:37:31;27.80;;;12.73;;
6378;SDS011;3222;48.858;10.128;2022-12-17T03:40:15;23.50;;;13.17;;
6378;SDS011;3222;48.858;10.128;2022-12-17T03:43:06;21.13;;;12.63;;
6378;SDS011;3222;48.858;10.128;2022-12-17T03:45:52;18.93;;;11.67;;
6378;SDS011;3222;48.858;10.128;2022-12-17T03:48:37;21.67;;;12.37;;
6378;SDS011;3222;48.858;10.128;2022-12-17T03:51:21;20.20;;;12.30;;
6378;SDS011;3222;48.858;10.128;2022-12-17T03:54:05;21.43;;;12.97;;
6378;SDS011;3222;48.858;10.128;2022-12-17T03:56:49;21.50;;;13.40;;
6378;SDS011;3222;48.858;10.128;2022-12-17T03:59:33;24.63;;;13.63;;
6378;SDS011;3222;48.858;10.128;2022-12-17T04:02:17;24.40;;;14.43;;
6378;SDS011;3222;48.858;10.128;2022-12-17T04:05:02;22.53;;;14.60;;
6378;SDS011;3222;48.858;10.128;2022-12-17T04:07:46;22.27;;;12.83;;
6378;SDS011;3222;48.858;10.128;2022-12-17T04:10:30;18.67;;;11.77;;
6378;SDS011;3222;48.858;10.128;2022-12-17T04:13:15;18.23;;;11.87;;
6378;SDS011;3222;48.858;10.128;2022-12-17T04:15:59;24.37;;;13.73;;
6378;SDS011;3222;48.858;10.128;2022-12-17T04:18:43;25.70;;;13.73;;
6378;SDS011;3222;48.858;10.128;2022-12-17T04:21:27;20.70;;;11.27;;
6378;SDS011;3222;48.858;10.128;2022-12-17T04:24:12;16.50;;;10.73;;
6378;SDS011;3222;48.858;10.128;2022-12-17T04:26:56;15.53;;;9.57;;
6378;SDS011;3222;48.858;10.128;2022-12-17T04:29:40;14.67;;;9.87;;
6378;SDS011;3222;48.858;10.128;2022-12-17T04:32:24;15.57;;;9.37;;
6378;SDS011;3222;48.858;10.128;2022-12-17T04:35:09;17.67;;;9.80;;
6378;SDS011;3222;48.858;10.128;2022-12-17T04:37:53;15.73;;;9.97;;
6378;SDS011;3222;48.858;10.128;2022-12-17T04:40:37;14.47;;;9.40;;
6378;SDS011;3222;48.858;10.128;2022-12-17T04:43:21;15.13;;;9.27;;
6378;SDS011;3222;48.858;10.128;2022-12-17T04:46:06;16.50;;;10.33;;
6378;SDS011;3222;48.858;10.128;2022-12-17T04:48:50;16.30;;;10.30;;
6378;SDS011;3222;48.858;10.128;2022-12-17T04:51:34;17.37;;;10.93;;
6378;SDS011;3222;48.858;10.128;2022-12-17T04:54:18;18.37;;;11.20;;
6378;SDS011;3222;48.858;10.128;2022-12-17T04:57:16;15.03;;;9.40;;
6378;SDS011;3222;48.858;10.128;2022-12-17T05:00:01;15.37;;;9.43;;
6378;SDS011;3222;48.858;10.128;2022-12-17T05:02:45;12.43;;;8.83;;
6378;SDS011;3222;48.858;10.128;2022-12-17T05:05:29;16.80;;;9.27;;
6378;SDS011;3222;48.858;10.128;2022-12-17T05:08:13;14.33;;;8.70;;
6378;SDS011;3222;48.858;10.128;2022-12-17T05:11:01;18.40;;;9.50;;
6378;SDS011;3222;48.858;10.128;2022-12-17T05:13:46;14.90;;;9.13;;
6378;SDS011;3222;48.858;10.128;2022-12-17T05:16:30;16.70;;;10.07;;
6378;SDS011;3222;48.858;10.128;2022-12-17T05:19:15;20.30;;;10.90;;
6378;SDS011;3222;48.858;10.128;2022-12-17T05:21:59;15.10;;;10.03;;
6378;SDS011;3222;48.858;10.128;2022-12-17T05:24:43;19.93;;;11.53;;
6378;SDS011;3222;48.858;10.128;2022-12-17T05:27:27;22.93;;;12.00;;
6378;SDS011;3222;48.858;10.128;2022-12-17T05:30:29;22.50;;;12.63;;
6378;SDS011;3222;48.858;10.128;2022-12-17T05:33:13;20.63;;;12.53;;
6378;SDS011;3222;48.858;10.128;2022-12-17T05:35:58;24.17;;;12.53;;
6378;SDS011;3222;48.858;10.128;2022-12-17T05:38:43;21.40;;;11.87;;
6378;SDS011;3222;48.858;10.128;2022-12-17T05:41:27;18.33;;;11.07;;
6378;SDS011;3222;48.858;10.128;2022-12-17T05:44:12;20.50;;;12.00;;
6378;SDS011;3222;48.858;10.128;2022-12-17T05:46:56;18.07;;;11.13;;
6378;SDS011;3222;48.858;10.128;2022-12-17T05:49:40;23.67;;;12.53;;
6378;SDS011;3222;48.858;10.128;2022-12-17T05:52:25;23.00;;;12.40;;
6378;SDS011;3222;48.858;10.128;2022-12-17T05:55:09;21.83;;;11.97;;
6378;SDS011;3222;48.858;10.128;2022-12-17T06:00:56;23.87;;;12.47;;
6378;SDS011;3222;48.858;10.128;2022-12-17T06:03:42;20.87;;;11.20;;
6378;SDS011;3222;48.858;10.128;2022-12-17T06:06:26;33.73;;;12.00;;
6378;SDS011;3222;48.858;10.128;2022-12-17T06:09:10;43.07;;;12.10;;
6378;SDS011;3222;48.858;10.128;2022-12-17T06:11:55;26.93;;;13.20;;
6378;SDS011;3222;48.858;10.128;2022-12-17T06:14:39;20.80;;;12.33;;
6378;SDS011;3222;48.858;10.128;2022-12-17T06:17:23;21.07;;;12.17;;
6378;SDS011;3222;48.858;10.128;2022-12-17T06:20:08;23.10;;;12.50;;
6378;SDS011;3222;48.858;10.128;2022-12-17T06:23:03;38.03;;;15.23;;
6378;SDS011;3222;48.858;10.128;2022-12-17T06:25:52;42.20;;;14.77;;
6378;SDS011;3222;48.858;10.128;2022-12-17T06:28:38;35.93;;;14.80;;
6378;SDS011;3222;48.858;10.128;2022-12-17T06:31:22;61.53;;;14.47;;
6378;SDS011;3222;48.858;10.128;2022-12-17T06:34:06;35.20;;;14.63;;
6378;SDS011;3222;48.858;10.128;2022-12-17T06:36:51;22.20;;;12.20;;
6378;SDS011;3222;48.858;10.128;2022-12-17T06:39:35;23.80;;;12.53;;
6378;SDS011;3222;48.858;10.128;2022-12-17T06:42:20;19.63;;;11.57;;
6378;SDS011;3222;48.858;10.128;2022-12-17T06:45:04;16.60;;;10.33;;
6378;SDS011;3222;48.858;10.128;2022-12-17T06:47:49;18.20;;;9.90;;
6378;SDS011;3222;48.858;10.128;2022-12-17T06:50:33;18.27;;;10.23;;
6378;SDS011;3222;48.858;10.128;2022-12-17T06:53:20;19.50;;;11.13;;
6378;SDS011;3222;48.858;10.128;2022-12-17T06:56:04;18.87;;;10.90;;
6378;SDS011;3222;48.858;10.128;2022-12-17T06:58:49;19.60;;;11.30;;
6378;SDS011;3222;48.858;10.128;2022-12-17T07:01:33;20.50;;;11.47;;
6378;SDS011;3222;48.858;10.128;2022-12-17T07:04:17;23.67;;;11.47;;
6378;SDS011;3222;48.858;10.128;2022-12-17T07:07:01;19.93;;;11.17;;
6378;SDS011;3222;48.858;10.128;2022-12-17T07:09:45;22.97;;;11.77;;
6378;SDS011;3222;48.858;10.128;2022-12-17T07:12:30;27.87;;;12.70;;
6378;SDS011;3222;48.858;10.128;2022-12-17T07:15:14;20.53;;;13.40;;
6378;SDS011;3222;48.858;10.128;2022-12-17T07:17:59;28.03;;;14.67;;
6378;SDS011;3222;48.858;10.128;2022-12-17T07:20:45;43.53;;;16.30;;
6378;SDS011;3222;48.858;10.128;2022-12-17T07:23:30;29.17;;;14.53;;
6378;SDS011;3222;48.858;10.128;2022-12-17T07:26:14;25.73;;;12.60;;
6378;SDS011;3222;48.858;10.128;2022-12-17T07:28:59;20.70;;;11.10;;
6378;SDS011;3222;48.858;10.128;2022-12-17T07:31:43;18.53;;;9.80;;
6378;SDS011;3222;48.858;10.128;2022-12-17T07:34:28;15.47;;;9.57;;
6378;SDS011;3222;48.858;10.128;2022-12-17T07:37:12;17.73;;;9.63;;
6378;SDS011;3222;48.858;10.128;2022-12-17T07:40:10;18.33;;;9.67;;
6378;SDS011;3222;48.858;10.128;2022-12-17T07:42:54;17.77;;;9.23;;
6378;SDS011;3222;48.858;10.128;2022-12-17T07:45:39;16.80;;;9.13;;
6378;SDS011;3222;48.858;10.128;2022-12-17T07:48:23;14.33;;;8.93;;
6378;SDS011;3222;48.858;10.128;2022-12-17T07:51:07;15.57;;;9.47;;
6378;SDS011;3222;48.858;10.128;2022-12-17T07:53:52;14.73;;;8.80;;
6378;SDS011;3222;48.858;10.128;2022-12-17T07:56:36;16.83;;;9.33;;
6378;SDS011;3222;48.858;10.128;2022-12-17T07:59:20;14.13;;;8.97;;
6378;SDS011;3222;48.858;10.128;2022-12-17T08:02:05;16.27;;;9.50;;
6378;SDS011;3222;48.858;10.128;2022-12-17T08:04:51;18.17;;;10.13;;
6378;SDS011;3222;48.858;10.128;2022-12-17T08:07:36;20.90;;;11.23;;
6378;SDS011;3222;48.858;10.128;2022-12-17T08:10:20;25.40;;;11.93;;
6378;SDS011;3222;48.858;10.128;2022-12-17T08:13:04;22.77;;;12.40;;
6378;SDS011;3222;48.858;10.128;2022-12-17T08:15:50;25.07;;;12.73;;
6378;SDS011;3222;48.858;10.128;2022-12-17T08:18:35;21.13;;;12.53;;
6378;SDS011;3222;48.858;10.128;2022-12-17T08:21:19;23.20;;;12.53;;
6378;SDS011;3222;48.858;10.128;2022-12-17T08:24:04;20.33;;;12.13;;
6378;SDS011;3222;48.858;10.128;2022-12-17T08:26:48;17.33;;;10.77;;
6378;SDS011;3222;48.858;10.128;2022-12-17T08:29:32;21.33;;;11.43;;
6378;SDS011;3222;48.858;10.128;2022-12-17T08:32:17;23.57;;;12.43;;
6378;SDS011;3222;48.858;10.128;2022-12-17T08:35:01;24.00;;;12.47;;
6378;SDS011;3222;48.858;10.128;2022-12-17T08:37:46;23.77;;;13.97;;
6378;SDS011;3222;48.858;10.128;2022-12-17T08:40:30;26.17;;;13.63;;
6378;SDS011;3222;48.858;10.128;2022-12-17T08:43:15;27.23;;;13.83;;
6378;SDS011;3222;48.858;10.128;2022-12-17T08:45:59;26.13;;;14.27;;
6378;SDS011;3222;48.858;10.128;2022-12-17T08:48:43;26.90;;;14.87;;
6378;SDS011;3222;48.858;10.128;2022-12-17T08:51:28;25.80;;;14.40;;
6378;SDS011;3222;48.858;10.128;2022-12-17T08:54:12;23.60;;;13.03;;
6378;SDS011;3222;48.858;10.128;2022-12-17T08:56:56;22.67;;;12.43;;
6378;SDS011;3222;48.858;10.128;2022-12-17T08:59:41;21.70;;;12.77;;
6378;SDS011;3222;48.858;10.128;2022-12-17T09:02:25;19.80;;;12.67;;
6378;SDS011;3222;48.858;10.128;2022-12-17T09:05:11;22.77;;;12.93;;
6378;SDS011;3222;48.858;10.128;2022-12-17T09:08:03;24.00;;;13.13;;
6378;SDS011;3222;48.858;10.128;2022-12-17T09:10:48;22.63;;;12.47;;
6378;SDS011;3222;48.858;10.128;2022-12-17T09:13:33;23.83;;;13.43;;
6378;SDS011;3222;48.858;10.128;2022-12-17T09:16:18;19.70;;;11.57;;
6378;SDS011;3222;48.858;10.128;2022-12-17T09:19:02;19.77;;;11.23;;
6378;SDS011;3222;48.858;10.128;2022-12-17T09:21:46;19.67;;;11.40;;
6378;SDS011;3222;48.858;10.128;2022-12-17T09:24:31;20.77;;;10.80;;
6378;SDS011;3222;48.858;10.128;2022-12-17T09:27:15;21.23;;;11.57;;
6378;SDS011;3222;48.858;10.128;2022-12-17T09:29:59;22.63;;;11.27;;
6378;SDS011;3222;48.858;10.128;2022-12-17T09:32:44;18.33;;;11.13;;
6378;SDS011;3222;48.858;10.128;2022-12-17T09:35:28;19.83;;;11.10;;
6378;SDS011;3222;48.858;10.128;2022-12-17T09:38:12;20.07;;;10.97;;
6378;SDS011;3222;48.858;10.128;2022-12-17T09:40:59;24.23;;;12.20;;
6378;SDS011;3222;48.858;10.128;2022-12-17T09:50:36;22.73;;;13.00;;
6378;SDS011;3222;48.858;10.128;2022-12-17T09:56:08;25.93;;;13.33;;
6378;SDS011;3222;48.858;10.128;2022-12-17T09:58:54;24.97;;;13.67;;
6378;SDS011;3222;48.858;10.128;2022-12-17T10:01:39;24.67;;;14.03;;
6378;SDS011;3222;48.858;10.128;2022-12-17T10:04:27;25.60;;;14.10;;
6378;SDS011;3222;48.858;10.128;2022-12-17T10:07:18;23.60;;;13.10;;
6378;SDS011;3222;48.858;10.128;2022-12-17T10:10:13;25.03;;;13.67;;
6378;SDS011;3222;48.858;10.128;2022-12-17T10:13:08;25.17;;;13.93;;
6378;SDS011;3222;48.858;10.128;2022-12-17T10:19:44;24.83;;;13.53;;
6378;SDS011;3222;48.858;10.128;2022-12-17T10:22:47;23.43;;;13.00;;
6378;SDS011;3222;48.858;10.128;2022-12-17T10:25:32;25.73;;;14.07;;
6378;SDS011;3222;48.858;10.128;2022-12-17T10:28:21;24.97;;;13.27;;
6378;SDS011;3222;48.858;10.128;2022-12-17T10:31:28;24.60;;;13.17;;
6378;SDS011;3222;48.858;10.128;2022-12-17T10:34:17;21.27;;;13.17;;
6378;SDS011;3222;48.858;10.128;2022-12-17T10:37:03;24.67;;;14.43;;
6378;SDS011;3222;48.858;10.128;2022-12-17T10:39:55;31.47;;;16.83;;
6378;SDS011;3222;48.858;10.128;2022-12-17T10:42:41;24.67;;;15.43;;
6378;SDS011;3222;48.858;10.128;2022-12-17T10:48:22;32.00;;;16.73;;
6378;SDS011;3222;48.858;10.128;2022-12-17T10:51:33;29.27;;;16.10;;
6378;SDS011;3222;48.858;10.128;2022-12-17T10:54:25;28.13;;;16.13;;
6378;SDS011;3222;48.858;10.128;2022-12-17T11:00:31;25.73;;;15.17;;
6378;SDS011;3222;48.858;10.128;2022-12-17T11:03:26;23.77;;;14.90;;
6378;SDS011;3222;48.858;10.128;2022-12-17T11:06:27;26.40;;;16.17;;
6378;SDS011;3222;48.858;10.128;2022-12-17T11:09:26;31.83;;;17.90;;
6378;SDS011;3222;48.858;10.128;2022-12-17T11:12:26;29.10;;;17.33;;
6378;SDS011;3222;48.858;10.128;2022-12-17T11:15:18;27.73;;;16.43;;
6378;SDS011;3222;48.858;10.128;2022-12-17T11:18:05;26.60;;;16.07;;
6378;SDS011;3222;48.858;10.128;2022-12-17T11:20:58;31.33;;;16.60;;
6378;SDS011;3222;48.858;10.128;2022-12-17T11:24:00;30.63;;;17.90;;
6378;SDS011;3222;48.858;10.128;2022-12-17T11:26:45;27.77;;;16.20;;
6378;SDS011;3222;48.858;10.128;2022-12-17T11:29:32;26.17;;;16.80;;
6378;SDS011;3222;48.858;10.128;2022-12-17T11:38:48;33.13;;;17.60;;
6378;SDS011;3222;48.858;10.128;2022-12-17T11:53:13;30.23;;;17.30;;
6378;SDS011;3222;48.858;10.128;2022-12-17T11:59:20;30.47;;;17.10;;
6378;SDS011;3222;48.858;10.128;2022-12-17T12:02:26;30.67;;;17.80;;
6378;SDS011;3222;48.858;10.128;2022-12-17T12:05:16;32.47;;;18.53;;
6378;SDS011;3222;48.858;10.128;2022-12-17T12:08:25;36.53;;;19.93;;
6378;SDS011;3222;48.858;10.128;2022-12-17T12:11:22;32.97;;;19.50;;
6378;SDS011;3222;48.858;10.128;2022-12-17T12:15:09;31.33;;;18.53;;
6378;SDS011;3222;48.858;10.128;2022-12-17T12:17:42;29.07;;;17.47;;
6378;SDS011;3222;48.858;10.128;2022-12-17T12:26:58;34.60;;;19.77;;
6378;SDS011;3222;48.858;10.128;2022-12-17T12:36:01;35.00;;;20.03;;
6378;SDS011;3222;48.858;10.128;2022-12-17T12:38:51;38.20;;;21.00;;
6378;SDS011;3222;48.858;10.128;2022-12-17T12:41:50;34.47;;;20.47;;
6378;SDS011;3222;48.858;10.128;2022-12-17T12:44:58;40.23;;;22.37;;
6378;SDS011;3222;48.858;10.128;2022-12-17T12:50:56;37.83;;;21.70;;
6378;SDS011;3222;48.858;10.128;2022-12-17T12:53:55;37.97;;;21.90;;
6378;SDS011;3222;48.858;10.128;2022-12-17T12:56:40;45.03;;;22.83;;
6378;SDS011;3222;48.858;10.128;2022-12-17T12:59:26;42.77;;;24.00;;
6378;SDS011;3222;48.858;10.128;2022-12-17T13:05:19;37.40;;;21.83;;
6378;SDS011;3222;48.858;10.128;2022-12-17T13:08:40;37.60;;;21.20;;
6378;SDS011;3222;48.858;10.128;2022-12-17T13:10:49;42.13;;;24.07;;
6378;SDS011;3222;48.858;10.128;2022-12-17T13:15:45;43.57;;;23.17;;
6378;SDS011;3222;48.858;10.128;2022-12-17T13:20:57;42.53;;;22.13;;
6378;SDS011;3222;48.858;10.128;2022-12-17T13:23:26;42.40;;;22.67;;
6378;SDS011;3222;48.858;10.128;2022-12-17T13:26:02;40.13;;;21.63;;
6378;SDS011;3222;48.858;10.128;2022-12-17T13:31:26;44.77;;;22.93;;
6378;SDS011;3222;48.858;10.128;2022-12-17T13:34:03;34.17;;;20.63;;
6378;SDS011;3222;48.858;10.128;2022-12-17T13:37:01;35.13;;;21.10;;
6378;SDS011;3222;48.858;10.128;2022-12-17T13:40:12;37.83;;;21.00;;
6378;SDS011;3222;48.858;10.128;2022-12-17T13:42:46;33.37;;;20.00;;
6378;SDS011;3222;48.858;10.128;2022-12-17T13:45:16;37.73;;;21.03;;
6378;SDS011;3222;48.858;10.128;2022-12-17T13:47:51;40.33;;;21.67;;
6378;SDS011;3222;48.858;10.128;2022-12-17T13:50:25;106.40;;;36.47;;
6378;SDS011;3222;48.858;10.128;2022-12-17T13:52:52;54.17;;;26.23;;
6378;SDS011;3222;48.858;10.128;2022-12-17T13:55:19;49.67;;;23.47;;
6378;SDS011;3222;48.858;10.128;2022-12-17T13:57:47;46.87;;;23.53;;
6378;SDS011;3222;48.858;10.128;2022-12-17T14:00:17;81.10;;;35.80;;
6378;SDS011;3222;48.858;10.128;2022-12-17T14:02:45;54.97;;;26.80;;
6378;SDS011;3222;48.858;10.128;2022-12-17T14:08:17;42.33;;;23.40;;
6378;SDS011;3222;48.858;10.128;2022-12-17T14:10:46;44.50;;;22.33;;
6378;SDS011;3222;48.858;10.128;2022-12-17T14:13:38;45.80;;;24.30;;
6378;SDS011;3222;48.858;10.128;2022-12-17T14:16:06;46.20;;;24.87;;
6378;SDS011;3222;48.858;10.128;2022-12-17T14:18:31;51.97;;;26.23;;
6378;SDS011;3222;48.858;10.128;2022-12-17T14:20:57;41.37;;;22.80;;
6378;SDS011;3222;48.858;10.128;2022-12-17T14:23:27;43.73;;;22.07;;
6378;SDS011;3222;48.858;10.128;2022-12-17T14:25:55;36.20;;;20.60;;
6378;SDS011;3222;48.858;10.128;2022-12-17T14:28:31;33.03;;;19.53;;
6378;SDS011;3222;48.858;10.128;2022-12-17T14:33:39;24.27;;;14.23;;
6378;SDS011;3222;48.858;10.128;2022-12-17T14:36:07;23.30;;;13.90;;
6378;SDS011;3222;48.858;10.128;2022-12-17T14:38:47;24.50;;;14.53;;
6378;SDS011;3222;48.858;10.128;2022-12-17T14:41:18;25.63;;;14.73;;
6378;SDS011;3222;48.858;10.128;2022-12-17T14:44:02;23.87;;;13.40;;
6378;SDS011;3222;48.858;10.128;2022-12-17T14:46:29;25.10;;;14.20;;
6378;SDS011;3222;48.858;10.128;2022-12-17T14:48:57;25.57;;;13.20;;
6378;SDS011;3222;48.858;10.128;2022-12-17T14:56:54;21.10;;;12.47;;
6378;SDS011;3222;48.858;10.128;2022-12-17T15:01:48;24.37;;;13.00;;
6378;SDS011;3222;48.858;10.128;2022-12-17T15:04:14;18.33;;;12.00;;
6378;SDS011;3222;48.858;10.128;2022-12-17T15:06:41;24.80;;;13.20;;
6378;SDS011;3222;48.858;10.128;2022-12-17T15:09:08;24.00;;;14.10;;
6378;SDS011;3222;48.858;10.128;2022-12-17T15:11:38;23.07;;;12.43;;
6378;SDS011;3222;48.858;10.128;2022-12-17T15:14:04;17.37;;;12.17;;
6378;SDS011;3222;48.858;10.128;2022-12-17T15:16:29;21.93;;;13.00;;
6378;SDS011;3222;48.858;10.128;2022-12-17T15:18:55;21.87;;;13.67;;
6378;SDS011;3222;48.858;10.128;2022-12-17T15:21:21;26.33;;;15.00;;
6378;SDS011;3222;48.858;10.128;2022-12-17T15:23:49;22.77;;;13.87;;
6378;SDS011;3222;48.858;10.128;2022-12-17T15:26:15;22.20;;;14.43;;
6378;SDS011;3222;48.858;10.128;2022-12-17T15:28:41;25.03;;;13.90;;
6378;SDS011;3222;48.858;10.128;2022-12-17T15:31:08;26.10;;;14.33;;
6378;SDS011;3222;48.858;10.128;2022-12-17T15:33:35;23.43;;;13.53;;
6378;SDS011;3222;48.858;10.128;2022-12-17T15:36:01;22.73;;;13.00;;
6378;SDS011;3222;48.858;10.128;2022-12-17T15:38:26;23.73;;;13.70;;
6378;SDS011;3222;48.858;10.128;2022-12-17T15:40:52;24.87;;;14.43;;
6378;SDS011;3222;48.858;10.128;2022-12-17T15:43:18;25.33;;;15.43;;
6378;SDS011;3222;48.858;10.128;2022-12-17T15:45:47;28.03;;;15.53;;
6378;SDS011;3222;48.858;10.128;2022-12-17T15:48:19;27.57;;;16.33;;
6378;SDS011;3222;48.858;10.128;2022-12-17T15:50:46;25.97;;;15.53;;
6378;SDS011;3222;48.858;10.128;2022-12-17T15:53:12;25.30;;;15.77;;
6378;SDS011;3222;48.858;10.128;2022-12-17T15:55:38;24.13;;;14.90;;
6378;SDS011;3222;48.858;10.128;2022-12-17T15:58:05;26.10;;;14.73;;
6378;SDS011;3222;48.858;10.128;2022-12-17T16:00:31;30.13;;;16.00;;
6378;SDS011;3222;48.858;10.128;2022-12-17T16:02:57;27.60;;;16.50;;
6378;SDS011;3222;48.858;10.128;2022-12-17T16:05:23;26.90;;;17.00;;
6378;SDS011;3222;48.858;10.128;2022-12-17T16:07:49;31.67;;;15.97;;
6378;SDS011;3222;48.858;10.128;2022-12-17T16:10:15;29.07;;;18.30;;
6378;SDS011;3222;48.858;10.128;2022-12-17T16:12:41;26.43;;;16.77;;
6378;SDS011;3222;48.858;10.128;2022-12-17T16:15:07;27.70;;;16.10;;
6378;SDS011;3222;48.858;10.128;2022-12-17T16:17:34;36.57;;;19.30;;
6378;SDS011;3222;48.858;10.128;2022-12-17T16:20:00;26.73;;;16.27;;
6378;SDS011;3222;48.858;10.128;2022-12-17T16:22:26;32.53;;;16.43;;
6378;SDS011;3222;48.858;10.128;2022-12-17T16:24:52;28.83;;;16.20;;
6378;SDS011;3222;48.858;10.128;2022-12-17T16:27:18;30.33;;;16.13;;
6378;SDS011;3222;48.858;10.128;2022-12-17T16:29:44;29.27;;;16.67;;
6378;SDS011;3222;48.858;10.128;2022-12-17T16:32:14;27.77;;;15.60;;
6378;SDS011;3222;48.858;10.128;2022-12-17T16:34:40;25.43;;;13.87;;
6378;SDS011;3222;48.858;10.128;2022-12-17T16:37:06;25.53;;;15.63;;
6378;SDS011;3222;48.858;10.128;2022-12-17T16:39:32;27.10;;;15.13;;
6378;SDS011;3222;48.858;10.128;2022-12-17T16:41:57;24.63;;;13.90;;
6378;SDS011;3222;48.858;10.128;2022-12-17T16:44:23;25.20;;;14.57;;
6378;SDS011;3222;48.858;10.128;2022-12-17T16:46:49;25.83;;;14.60;;
6378;SDS011;3222;48.858;10.128;2022-12-17T16:49:17;25.97;;;13.80;;
6378;SDS011;3222;48.858;10.128;2022-12-17T16:51:45;24.93;;;13.77;;
6378;SDS011;3222;48.858;10.128;2022-12-17T16:54:14;26.17;;;14.90;;
6378;SDS011;3222;48.858;10.128;2022-12-17T16:56:41;25.83;;;13.17;;
6378;SDS011;3222;48.858;10.128;2022-12-17T16:59:07;24.83;;;13.70;;
6378;SDS011;3222;48.858;10.128;2022-12-17T17:01:34;25.63;;;13.43;;
6378;SDS011;3222;48.858;10.128;2022-12-17T17:04:01;20.47;;;11.93;;
6378;SDS011;3222;48.858;10.128;2022-12-17T17:06:28;22.13;;;12.67;;
6378;SDS011;3222;48.858;10.128;2022-12-17T17:08:54;25.37;;;12.67;;
6378;SDS011;3222;48.858;10.128;2022-12-17T17:11:20;22.30;;;11.97;;
6378;SDS011;3222;48.858;10.128;2022-12-17T17:13:48;18.47;;;11.30;;
6378;SDS011;3222;48.858;10.128;2022-12-17T17:16:16;23.33;;;13.23;;
6378;SDS011;3222;48.858;10.128;2022-12-17T17:18:44;20.33;;;11.57;;
6378;SDS011;3222;48.858;10.128;2022-12-17T17:21:21;24.30;;;13.10;;
6378;SDS011;3222;48.858;10.128;2022-12-17T17:23:54;22.97;;;13.40;;
6378;SDS011;3222;48.858;10.128;2022-12-17T17:26:21;26.80;;;13.03;;
6378;SDS011;3222;48.858;10.128;2022-12-17T17:28:47;27.30;;;13.47;;
6378;SDS011;3222;48.858;10.128;2022-12-17T17:31:13;22.20;;;13.20;;
6378;SDS011;3222;48.858;10.128;2022-12-17T17:33:41;24.47;;;13.30;;
6378;SDS011;3222;48.858;10.128;2022-12-17T17:36:09;25.10;;;12.90;;